sensor_id;sensor_type;location;lat;lon;timestamp;pressure;altitude;pressure_sealevel;temperature;humidity
74334;BME280;62753;40.394;-80.022;2023-04-24T00:02:06;97505.11;;;12.65;25.32
74334;BME280;62753;40.394;-80.022;2023-04-24T00:04:31;97505.42;;;11.66;26.18
74334;BME280;62753;40.394;-80.022;2023-04-24T00:06:57;97508.81;;;10.71;27.48
74334;BME280;62753;40.394;-80.022;2023-04-24T00:09:22;97508.51;;;11.42;27.67
74334;BME280;62753;40.394;-80.022;2023-04-24T00:11:48;97506.50;;;12.00;27.23
74334;BME280;62753;40.394;-80.022;2023-04-24T00:14:13;97507.47;;;12.52;27.05
74334;BME280;62753;40.394;-80.022;2023-04-24T00:16:39;97508.06;;;12.53;26.06
74334;BME280;62753;40.394;-80.022;2023-04-24T00:19:04;97505.88;;;12.30;27.10
74334;BME280;62753;40.394;-80.022;2023-04-24T00:21:29;97506.14;;;12.57;26.31
74334;BME280;62753;40.394;-80.022;2023-04-24T00:23:55;97510.31;;;12.64;25.90
74334;BME280;62753;40.394;-80.022;2023-04-24T00:26:20;97508.27;;;13.09;25.28
74334;BME280;62753;40.394;-80.022;2023-04-24T00:28:46;97513.30;;;12.68;25.96
74334;BME280;62753;40.394;-80.022;2023-04-24T00:31:11;97514.33;;;13.00;26.67
74334;BME280;62753;40.394;-80.022;2023-04-24T00:33:37;97513.77;;;12.07;26.47
74334;BME280;62753;40.394;-80.022;2023-04-24T00:36:03;97517.05;;;12.08;27.53
74334;BME280;62753;40.394;-80.022;2023-04-24T00:38:28;97523.35;;;12.30;26.59
74334;BME280;62753;40.394;-80.022;2023-04-24T00:40:53;97525.15;;;11.95;26.04
74334;BME280;62753;40.394;-80.022;2023-04-24T00:43:19;97528.41;;;12.57;26.50
74334;BME280;62753;40.394;-80.022;2023-04-24T00:45:44;97532.52;;;12.97;26.14
74334;BME280;62753;40.394;-80.022;2023-04-24T00:48:11;97532.34;;;12.80;26.63
74334;BME280;62753;40.394;-80.022;2023-04-24T00:50:36;97531.45;;;13.20;25.89
74334;BME280;62753;40.394;-80.022;2023-04-24T00:53:01;97535.04;;;13.12;25.06
74334;BME280;62753;40.394;-80.022;2023-04-24T00:55:26;97534.61;;;12.77;26.74
74334;BME280;62753;40.394;-80.022;2023-04-24T00:57:52;97537.17;;;12.81;26.72
74334;BME280;62753;40.394;-80.022;2023-04-24T01:00:17;97540.18;;;12.66;26.49
74334;BME280;62753;40.394;-80.022;2023-04-24T01:02:44;97538.90;;;12.06;26.50
74334;BME280;62753;40.394;-80.022;2023-04-24T01:05:08;97538.25;;;12.58;26.75
74334;BME280;62753;40.394;-80.022;2023-04-24T01:07:34;97537.73;;;12.55;26.46
74334;BME280;62753;40.394;-80.022;2023-04-24T01:09:59;97536.94;;;12.68;26.95
74334;BME280;62753;40.394;-80.022;2023-04-24T01:12:25;97542.15;;;13.10;26.66
74334;BME280;62753;40.394;-80.022;2023-04-24T01:14:50;97541.04;;;12.52;26.47
74334;BME280;62753;40.394;-80.022;2023-04-24T01:17:17;97542.16;;;12.56;26.63
74334;BME280;62753;40.394;-80.022;2023-04-24T01:19:41;97543.73;;;11.83;27.11
74334;BME280;62753;40.394;-80.022;2023-04-24T01:22:10;97547.58;;;11.60;28.41
74334;BME280;62753;40.394;-80.022;2023-04-24T01:24:32;97554.38;;;11.76;28.03
74334;BME280;62753;40.394;-80.022;2023-04-24T01:26:57;97554.36;;;12.06;27.49
74334;BME280;62753;40.394;-80.022;2023-04-24T01:29:23;97557.10;;;11.93;28.00
74334;BME280;62753;40.394;-80.022;2023-04-24T01:31:49;97561.36;;;11.02;29.31
74334;BME280;62753;40.394;-80.022;2023-04-24T01:34:14;97565.94;;;11.67;28.79
74334;BME280;62753;40.394;-80.022;2023-04-24T01:36:40;97570.15;;;10.95;29.39
74334;BME280;62753;40.394;-80.022;2023-04-24T01:39:06;97575.36;;;11.69;28.59
74334;BME280;62753;40.394;-80.022;2023-04-24T01:41:30;97575.05;;;11.33;29.01
74334;BME280;62753;40.394;-80.022;2023-04-24T01:43:57;97575.66;;;11.27;29.41
74334;BME280;62753;40.394;-80.022;2023-04-24T01:46:21;97578.17;;;11.61;28.71
74334;BME280;62753;40.394;-80.022;2023-04-24T01:48:48;97583.19;;;11.98;28.20
74334;BME280;62753;40.394;-80.022;2023-04-24T01:51:13;97587.74;;;11.43;28.81
74334;BME280;62753;40.394;-80.022;2023-04-24T01:53:38;97586.05;;;11.78;28.75
74334;BME280;62753;40.394;-80.022;2023-04-24T01:56:05;97584.28;;;11.84;28.31
74334;BME280;62753;40.394;-80.022;2023-04-24T01:58:29;97586.88;;;11.72;28.85
74334;BME280;62753;40.394;-80.022;2023-04-24T02:00:56;97588.13;;;10.67;30.55
74334;BME280;62753;40.394;-80.022;2023-04-24T02:03:20;97587.85;;;10.14;30.68
74334;BME280;62753;40.394;-80.022;2023-04-24T02:05:46;97590.86;;;10.41;30.84
74334;BME280;62753;40.394;-80.022;2023-04-24T02:08:11;97596.45;;;11.46;31.17
74334;BME280;62753;40.394;-80.022;2023-04-24T02:10:37;97598.19;;;11.45;29.62
74334;BME280;62753;40.394;-80.022;2023-04-24T02:13:02;97596.07;;;11.01;30.04
74334;BME280;62753;40.394;-80.022;2023-04-24T02:15:28;97599.14;;;11.57;29.98
74334;BME280;62753;40.394;-80.022;2023-04-24T02:17:53;97598.06;;;12.16;28.84
74334;BME280;62753;40.394;-80.022;2023-04-24T02:20:19;97595.55;;;12.00;28.78
74334;BME280;62753;40.394;-80.022;2023-04-24T02:22:44;97597.10;;;11.61;29.78
74334;BME280;62753;40.394;-80.022;2023-04-24T02:25:10;97596.46;;;11.78;29.73
74334;BME280;62753;40.394;-80.022;2023-04-24T02:27:36;97598.43;;;11.53;29.34
74334;BME280;62753;40.394;-80.022;2023-04-24T02:30:01;97601.66;;;10.92;29.26
74334;BME280;62753;40.394;-80.022;2023-04-24T02:32:26;97607.02;;;11.30;29.83
74334;BME280;62753;40.394;-80.022;2023-04-24T02:34:52;97611.76;;;11.72;29.00
74334;BME280;62753;40.394;-80.022;2023-04-24T02:37:17;97614.18;;;12.39;28.90
74334;BME280;62753;40.394;-80.022;2023-04-24T02:39:43;97613.83;;;11.84;28.85
74334;BME280;62753;40.394;-80.022;2023-04-24T02:42:09;97613.91;;;12.22;29.37
74334;BME280;62753;40.394;-80.022;2023-04-24T02:44:34;97610.82;;;11.76;29.00
74334;BME280;62753;40.394;-80.022;2023-04-24T02:46:59;97610.33;;;11.82;28.90
74334;BME280;62753;40.394;-80.022;2023-04-24T02:49:24;97607.82;;;12.17;28.65
74334;BME280;62753;40.394;-80.022;2023-04-24T02:51:50;97609.65;;;12.00;28.95
74334;BME280;62753;40.394;-80.022;2023-04-24T02:54:16;97607.31;;;11.89;28.59
74334;BME280;62753;40.394;-80.022;2023-04-24T02:56:41;97603.77;;;11.62;28.78
74334;BME280;62753;40.394;-80.022;2023-04-24T02:59:07;97603.81;;;12.07;28.59
74334;BME280;62753;40.394;-80.022;2023-04-24T03:01:32;97604.60;;;12.08;28.81
74334;BME280;62753;40.394;-80.022;2023-04-24T03:03:57;97603.64;;;12.30;28.10
74334;BME280;62753;40.394;-80.022;2023-04-24T03:06:23;97604.31;;;12.05;28.20
74334;BME280;62753;40.394;-80.022;2023-04-24T03:08:48;97601.99;;;12.76;28.12
74334;BME280;62753;40.394;-80.022;2023-04-24T03:11:14;97598.49;;;12.25;28.38
74334;BME280;62753;40.394;-80.022;2023-04-24T03:13:39;97604.75;;;12.38;28.72
74334;BME280;62753;40.394;-80.022;2023-04-24T03:16:05;97601.14;;;11.78;28.84
74334;BME280;62753;40.394;-80.022;2023-04-24T03:18:31;97602.62;;;12.57;28.85
74334;BME280;62753;40.394;-80.022;2023-04-24T03:20:56;97603.24;;;12.26;28.82
74334;BME280;62753;40.394;-80.022;2023-04-24T03:23:22;97600.78;;;12.05;28.87
74334;BME280;62753;40.394;-80.022;2023-04-24T03:25:47;97601.22;;;11.45;29.49
74334;BME280;62753;40.394;-80.022;2023-04-24T03:28:12;97604.59;;;12.29;28.71
74334;BME280;62753;40.394;-80.022;2023-04-24T03:30:38;97602.23;;;12.02;28.57
74334;BME280;62753;40.394;-80.022;2023-04-24T03:33:03;97598.95;;;11.75;28.99
74334;BME280;62753;40.394;-80.022;2023-04-24T03:35:29;97601.05;;;11.85;28.90
74334;BME280;62753;40.394;-80.022;2023-04-24T03:37:55;97600.32;;;12.15;28.63
74334;BME280;62753;40.394;-80.022;2023-04-24T03:40:20;97595.12;;;11.59;28.75
74334;BME280;62753;40.394;-80.022;2023-04-24T03:42:45;97590.85;;;11.45;29.62
74334;BME280;62753;40.394;-80.022;2023-04-24T03:45:11;97589.98;;;11.86;28.74
74334;BME280;62753;40.394;-80.022;2023-04-24T03:47:37;97584.65;;;12.11;28.98
74334;BME280;62753;40.394;-80.022;2023-04-24T03:50:03;97585.55;;;11.93;28.54
74334;BME280;62753;40.394;-80.022;2023-04-24T03:52:28;97584.42;;;11.81;28.95
74334;BME280;62753;40.394;-80.022;2023-04-24T03:54:53;97583.04;;;12.04;29.04
74334;BME280;62753;40.394;-80.022;2023-04-24T03:57:19;97580.07;;;12.34;29.34
74334;BME280;62753;40.394;-80.022;2023-04-24T03:59:44;97580.87;;;12.46;27.63
74334;BME280;62753;40.394;-80.022;2023-04-24T04:02:09;97582.31;;;12.54;28.00
74334;BME280;62753;40.394;-80.022;2023-04-24T04:04:35;97584.14;;;12.50;27.85
74334;BME280;62753;40.394;-80.022;2023-04-24T04:07:01;97583.38;;;12.28;27.34
74334;BME280;62753;40.394;-80.022;2023-04-24T04:09:26;97582.00;;;12.42;27.65
74334;BME280;62753;40.394;-80.022;2023-04-24T04:11:52;97577.13;;;12.29;27.72
74334;BME280;62753;40.394;-80.022;2023-04-24T04:14:17;97575.08;;;12.22;27.99
74334;BME280;62753;40.394;-80.022;2023-04-24T04:16:43;97574.79;;;12.55;27.73
74334;BME280;62753;40.394;-80.022;2023-04-24T04:19:09;97574.75;;;13.00;26.85
74334;BME280;62753;40.394;-80.022;2023-04-24T04:21:34;97570.51;;;12.66;27.41
74334;BME280;62753;40.394;-80.022;2023-04-24T04:24:00;97568.31;;;12.30;27.75
74334;BME280;62753;40.394;-80.022;2023-04-24T04:26:25;97565.37;;;12.68;28.20
74334;BME280;62753;40.394;-80.022;2023-04-24T04:28:51;97564.34;;;12.64;28.06
74334;BME280;62753;40.394;-80.022;2023-04-24T04:31:16;97564.28;;;12.79;27.24
74334;BME280;62753;40.394;-80.022;2023-04-24T04:33:41;97562.20;;;12.72;27.74
74334;BME280;62753;40.394;-80.022;2023-04-24T04:36:07;97562.39;;;13.26;28.34
74334;BME280;62753;40.394;-80.022;2023-04-24T04:38:32;97559.36;;;12.58;27.54
74334;BME280;62753;40.394;-80.022;2023-04-24T04:40:58;97561.60;;;12.86;28.10
74334;BME280;62753;40.394;-80.022;2023-04-24T04:43:24;97558.17;;;12.73;28.41
74334;BME280;62753;40.394;-80.022;2023-04-24T04:45:49;97558.76;;;13.15;27.26
74334;BME280;62753;40.394;-80.022;2023-04-24T04:48:14;97553.60;;;12.76;28.16
74334;BME280;62753;40.394;-80.022;2023-04-24T04:50:40;97557.87;;;13.03;27.51
74334;BME280;62753;40.394;-80.022;2023-04-24T04:53:05;97557.08;;;13.04;27.01
74334;BME280;62753;40.394;-80.022;2023-04-24T04:55:31;97554.41;;;12.88;27.13
74334;BME280;62753;40.394;-80.022;2023-04-24T04:57:56;97551.07;;;13.28;27.27
74334;BME280;62753;40.394;-80.022;2023-04-24T05:00:22;97547.28;;;12.88;28.16
74334;BME280;62753;40.394;-80.022;2023-04-24T05:02:47;97541.43;;;12.70;27.90
74334;BME280;62753;40.394;-80.022;2023-04-24T05:05:13;97540.18;;;12.15;28.49
74334;BME280;62753;40.394;-80.022;2023-04-24T05:07:38;97540.89;;;12.44;28.80
74334;BME280;62753;40.394;-80.022;2023-04-24T05:10:05;97538.44;;;12.14;28.46
74334;BME280;62753;40.394;-80.022;2023-04-24T05:12:29;97533.71;;;12.41;28.43
74334;BME280;62753;40.394;-80.022;2023-04-24T05:14:55;97530.43;;;12.28;27.66
74334;BME280;62753;40.394;-80.022;2023-04-24T05:17:20;97531.68;;;12.76;27.80
74334;BME280;62753;40.394;-80.022;2023-04-24T05:19:46;97524.96;;;12.58;28.24
74334;BME280;62753;40.394;-80.022;2023-04-24T05:22:12;97521.23;;;12.63;27.78
74334;BME280;62753;40.394;-80.022;2023-04-24T05:24:37;97519.47;;;13.00;27.72
74334;BME280;62753;40.394;-80.022;2023-04-24T05:27:03;97518.88;;;12.51;27.91
74334;BME280;62753;40.394;-80.022;2023-04-24T05:29:28;97514.64;;;12.33;27.63
74334;BME280;62753;40.394;-80.022;2023-04-24T05:31:54;97514.66;;;11.81;29.01
74334;BME280;62753;40.394;-80.022;2023-04-24T05:34:19;97513.63;;;11.86;28.08
74334;BME280;62753;40.394;-80.022;2023-04-24T05:36:50;97512.22;;;12.23;28.32
74334;BME280;62753;40.394;-80.022;2023-04-24T05:39:10;97510.84;;;11.92;28.44
74334;BME280;62753;40.394;-80.022;2023-04-24T05:41:35;97510.24;;;12.10;28.40
74334;BME280;62753;40.394;-80.022;2023-04-24T05:44:01;97505.64;;;11.89;28.80
74334;BME280;62753;40.394;-80.022;2023-04-24T05:46:26;97506.13;;;12.00;29.02
74334;BME280;62753;40.394;-80.022;2023-04-24T05:48:52;97505.80;;;12.13;28.93
74334;BME280;62753;40.394;-80.022;2023-04-24T05:51:17;97503.83;;;11.75;28.96
74334;BME280;62753;40.394;-80.022;2023-04-24T05:53:43;97505.16;;;11.60;28.76
74334;BME280;62753;40.394;-80.022;2023-04-24T05:56:08;97503.93;;;12.25;29.24
74334;BME280;62753;40.394;-80.022;2023-04-24T05:58:34;97502.26;;;12.00;28.54
74334;BME280;62753;40.394;-80.022;2023-04-24T06:00:59;97499.06;;;11.42;29.58
74334;BME280;62753;40.394;-80.022;2023-04-24T06:03:25;97502.20;;;11.98;28.74
74334;BME280;62753;40.394;-80.022;2023-04-24T06:05:50;97496.37;;;12.09;28.71
74334;BME280;62753;40.394;-80.022;2023-04-24T06:08:16;97495.23;;;11.28;29.08
74334;BME280;62753;40.394;-80.022;2023-04-24T06:10:42;97495.00;;;11.64;29.25
74334;BME280;62753;40.394;-80.022;2023-04-24T06:13:06;97492.52;;;11.85;29.53
74334;BME280;62753;40.394;-80.022;2023-04-24T06:15:34;97493.32;;;11.86;29.44
74334;BME280;62753;40.394;-80.022;2023-04-24T06:17:58;97493.42;;;11.22;29.54
74334;BME280;62753;40.394;-80.022;2023-04-24T06:20:25;97490.58;;;11.47;29.73
74334;BME280;62753;40.394;-80.022;2023-04-24T06:22:49;97491.80;;;11.43;29.88
74334;BME280;62753;40.394;-80.022;2023-04-24T06:25:14;97498.80;;;11.43;29.79
74334;BME280;62753;40.394;-80.022;2023-04-24T06:27:40;97504.18;;;11.16;30.86
74334;BME280;62753;40.394;-80.022;2023-04-24T06:30:07;97505.61;;;10.79;31.27
74334;BME280;62753;40.394;-80.022;2023-04-24T06:32:31;97505.54;;;10.78;31.23
74334;BME280;62753;40.394;-80.022;2023-04-24T06:34:57;97510.17;;;10.89;31.59
74334;BME280;62753;40.394;-80.022;2023-04-24T06:37:22;97504.63;;;11.08;31.20
74334;BME280;62753;40.394;-80.022;2023-04-24T06:39:47;97500.64;;;11.54;30.61
74334;BME280;62753;40.394;-80.022;2023-04-24T06:42:13;97500.13;;;11.14;30.83
74334;BME280;62753;40.394;-80.022;2023-04-24T06:44:38;97499.29;;;11.04;31.02
74334;BME280;62753;40.394;-80.022;2023-04-24T06:47:04;97502.42;;;10.84;31.49
74334;BME280;62753;40.394;-80.022;2023-04-24T06:49:30;97502.96;;;10.82;31.22
74334;BME280;62753;40.394;-80.022;2023-04-24T06:51:55;97502.07;;;11.01;31.21
74334;BME280;62753;40.394;-80.022;2023-04-24T06:54:21;97505.46;;;11.09;30.96
74334;BME280;62753;40.394;-80.022;2023-04-24T06:56:46;97503.04;;;10.87;31.32
74334;BME280;62753;40.394;-80.022;2023-04-24T06:59:12;97503.80;;;10.68;31.08
74334;BME280;62753;40.394;-80.022;2023-04-24T07:01:37;97503.76;;;10.87;31.06
74334;BME280;62753;40.394;-80.022;2023-04-24T07:04:03;97502.44;;;10.74;30.83
74334;BME280;62753;40.394;-80.022;2023-04-24T07:06:28;97503.20;;;10.54;31.30
74334;BME280;62753;40.394;-80.022;2023-04-24T07:08:54;97503.15;;;11.22;30.80
74334;BME280;62753;40.394;-80.022;2023-04-24T07:11:19;97501.93;;;10.95;30.99
74334;BME280;62753;40.394;-80.022;2023-04-24T07:13:45;97502.61;;;11.20;31.15
74334;BME280;62753;40.394;-80.022;2023-04-24T07:16:10;97501.59;;;10.71;31.29
74334;BME280;62753;40.394;-80.022;2023-04-24T07:18:36;97496.21;;;10.81;31.10
74334;BME280;62753;40.394;-80.022;2023-04-24T07:21:02;97494.28;;;10.98;30.78
74334;BME280;62753;40.394;-80.022;2023-04-24T07:23:27;97493.31;;;11.19;30.60
74334;BME280;62753;40.394;-80.022;2023-04-24T07:25:53;97490.26;;;11.37;31.24
74334;BME280;62753;40.394;-80.022;2023-04-24T07:28:18;97489.37;;;10.91;31.05
74334;BME280;62753;40.394;-80.022;2023-04-24T07:30:44;97485.71;;;10.97;31.19
74334;BME280;62753;40.394;-80.022;2023-04-24T07:33:09;97486.54;;;11.11;31.43
74334;BME280;62753;40.394;-80.022;2023-04-24T07:35:35;97488.11;;;10.96;31.54
74334;BME280;62753;40.394;-80.022;2023-04-24T07:38:00;97491.07;;;10.95;31.49
74334;BME280;62753;40.394;-80.022;2023-04-24T07:40:26;97492.78;;;10.71;31.53
74334;BME280;62753;40.394;-80.022;2023-04-24T07:42:52;97495.89;;;10.81;31.44
74334;BME280;62753;40.394;-80.022;2023-04-24T07:45:17;97500.68;;;10.87;31.89
74334;BME280;62753;40.394;-80.022;2023-04-24T07:47:43;97507.30;;;11.00;31.72
74334;BME280;62753;40.394;-80.022;2023-04-24T07:50:09;97507.38;;;10.64;31.56
74334;BME280;62753;40.394;-80.022;2023-04-24T07:52:34;97508.13;;;10.95;31.44
74334;BME280;62753;40.394;-80.022;2023-04-24T07:54:59;97506.28;;;10.77;31.41
74334;BME280;62753;40.394;-80.022;2023-04-24T07:57:25;97504.95;;;10.75;31.59
74334;BME280;62753;40.394;-80.022;2023-04-24T07:59:50;97506.31;;;10.99;31.25
74334;BME280;62753;40.394;-80.022;2023-04-24T08:02:15;97507.31;;;10.99;31.79
74334;BME280;62753;40.394;-80.022;2023-04-24T08:04:41;97506.82;;;11.38;31.22
74334;BME280;62753;40.394;-80.022;2023-04-24T08:07:07;97508.12;;;11.57;30.85
74334;BME280;62753;40.394;-80.022;2023-04-24T08:09:32;97509.56;;;11.33;31.89
74334;BME280;62753;40.394;-80.022;2023-04-24T08:11:58;97509.34;;;11.16;31.35
74334;BME280;62753;40.394;-80.022;2023-04-24T08:14:23;97509.25;;;11.19;31.77
74334;BME280;62753;40.394;-80.022;2023-04-24T08:16:49;97508.38;;;11.12;31.72
74334;BME280;62753;40.394;-80.022;2023-04-24T08:19:14;97508.10;;;11.22;31.91
74334;BME280;62753;40.394;-80.022;2023-04-24T08:21:40;97505.80;;;11.28;31.96
74334;BME280;62753;40.394;-80.022;2023-04-24T08:24:05;97507.21;;;11.09;32.15
74334;BME280;62753;40.394;-80.022;2023-04-24T08:26:31;97505.42;;;10.93;31.59
74334;BME280;62753;40.394;-80.022;2023-04-24T08:28:56;97504.22;;;11.20;31.74
74334;BME280;62753;40.394;-80.022;2023-04-24T08:31:21;97503.46;;;11.32;32.57
74334;BME280;62753;40.394;-80.022;2023-04-24T08:33:47;97503.32;;;11.51;31.26
74334;BME280;62753;40.394;-80.022;2023-04-24T08:36:13;97506.09;;;11.28;31.80
74334;BME280;62753;40.394;-80.022;2023-04-24T08:38:38;97507.87;;;11.86;31.57
74334;BME280;62753;40.394;-80.022;2023-04-24T08:41:04;97509.85;;;11.32;32.77
74334;BME280;62753;40.394;-80.022;2023-04-24T08:43:29;97508.87;;;11.11;32.28
74334;BME280;62753;40.394;-80.022;2023-04-24T08:45:56;97506.11;;;11.61;31.81
74334;BME280;62753;40.394;-80.022;2023-04-24T08:48:21;97505.54;;;11.49;31.99
74334;BME280;62753;40.394;-80.022;2023-04-24T08:50:46;97505.64;;;11.35;31.49
74334;BME280;62753;40.394;-80.022;2023-04-24T08:53:11;97506.89;;;11.64;31.81
74334;BME280;62753;40.394;-80.022;2023-04-24T08:55:37;97510.30;;;11.13;32.36
74334;BME280;62753;40.394;-80.022;2023-04-24T08:58:02;97508.86;;;11.53;32.03
74334;BME280;62753;40.394;-80.022;2023-04-24T09:00:28;97510.25;;;11.69;31.50
74334;BME280;62753;40.394;-80.022;2023-04-24T09:02:54;97510.02;;;11.58;31.65
74334;BME280;62753;40.394;-80.022;2023-04-24T09:05:21;97509.88;;;11.51;31.38
74334;BME280;62753;40.394;-80.022;2023-04-24T09:07:47;97513.11;;;11.52;31.42
74334;BME280;62753;40.394;-80.022;2023-04-24T09:10:11;97514.66;;;11.13;32.66
74334;BME280;62753;40.394;-80.022;2023-04-24T09:12:35;97519.25;;;11.89;31.24
74334;BME280;62753;40.394;-80.022;2023-04-24T09:15:02;97519.40;;;12.00;30.92
74334;BME280;62753;40.394;-80.022;2023-04-24T09:17:27;97522.97;;;12.64;30.00
74334;BME280;62753;40.394;-80.022;2023-04-24T09:19:52;97520.87;;;11.59;31.33
74334;BME280;62753;40.394;-80.022;2023-04-24T09:22:17;97523.92;;;11.28;31.75
74334;BME280;62753;40.394;-80.022;2023-04-24T09:24:43;97520.82;;;11.38;31.47
74334;BME280;62753;40.394;-80.022;2023-04-24T09:27:11;97517.31;;;11.10;31.79
74334;BME280;62753;40.394;-80.022;2023-04-24T09:29:34;97516.22;;;11.61;31.48
74334;BME280;62753;40.394;-80.022;2023-04-24T09:31:59;97517.85;;;11.30;31.90
74334;BME280;62753;40.394;-80.022;2023-04-24T09:34:27;97514.68;;;11.66;32.07
74334;BME280;62753;40.394;-80.022;2023-04-24T09:36:51;97515.04;;;11.88;31.78
74334;BME280;62753;40.394;-80.022;2023-04-24T09:39:16;97515.57;;;11.25;32.30
74334;BME280;62753;40.394;-80.022;2023-04-24T09:41:45;97519.31;;;10.96;33.14
74334;BME280;62753;40.394;-80.022;2023-04-24T09:44:12;97523.02;;;11.46;32.91
74334;BME280;62753;40.394;-80.022;2023-04-24T09:46:33;97528.99;;;10.96;33.09
74334;BME280;62753;40.394;-80.022;2023-04-24T09:49:07;97530.92;;;11.06;33.27
74334;BME280;62753;40.394;-80.022;2023-04-24T09:51:33;97526.58;;;11.02;33.02
74334;BME280;62753;40.394;-80.022;2023-04-24T09:53:53;97526.77;;;10.97;32.64
74334;BME280;62753;40.394;-80.022;2023-04-24T09:56:15;97522.01;;;10.33;33.02
74334;BME280;62753;40.394;-80.022;2023-04-24T09:58:40;97525.47;;;10.89;33.04
74334;BME280;62753;40.394;-80.022;2023-04-24T10:01:06;97522.89;;;10.99;33.25
74334;BME280;62753;40.394;-80.022;2023-04-24T10:03:33;97524.73;;;10.63;33.01
74334;BME280;62753;40.394;-80.022;2023-04-24T10:05:59;97527.57;;;11.10;32.84
74334;BME280;62753;40.394;-80.022;2023-04-24T10:08:23;97526.10;;;10.99;32.46
74334;BME280;62753;40.394;-80.022;2023-04-24T10:10:48;97526.93;;;10.98;32.54
74334;BME280;62753;40.394;-80.022;2023-04-24T10:13:14;97527.62;;;10.65;32.98
74334;BME280;62753;40.394;-80.022;2023-04-24T10:15:40;97528.13;;;10.39;33.23
74334;BME280;62753;40.394;-80.022;2023-04-24T10:18:06;97527.97;;;10.64;33.22
74334;BME280;62753;40.394;-80.022;2023-04-24T10:20:30;97531.27;;;10.35;33.55
74334;BME280;62753;40.394;-80.022;2023-04-24T10:22:57;97534.35;;;10.62;33.31
74334;BME280;62753;40.394;-80.022;2023-04-24T10:25:23;97540.31;;;11.04;32.96
74334;BME280;62753;40.394;-80.022;2023-04-24T10:27:48;97540.15;;;10.60;33.16
74334;BME280;62753;40.394;-80.022;2023-04-24T10:30:13;97537.88;;;10.36;33.78
74334;BME280;62753;40.394;-80.022;2023-04-24T10:32:38;97541.51;;;11.02;33.70
74334;BME280;62753;40.394;-80.022;2023-04-24T10:35:04;97544.51;;;10.20;33.98
74334;BME280;62753;40.394;-80.022;2023-04-24T10:37:29;97546.11;;;9.77;34.61
74334;BME280;62753;40.394;-80.022;2023-04-24T10:39:55;97550.51;;;9.97;34.82
74334;BME280;62753;40.394;-80.022;2023-04-24T10:42:20;97552.19;;;9.69;34.85
74334;BME280;62753;40.394;-80.022;2023-04-24T10:44:48;97556.32;;;10.26;34.55
74334;BME280;62753;40.394;-80.022;2023-04-24T10:47:13;97560.01;;;10.73;34.39
74334;BME280;62753;40.394;-80.022;2023-04-24T10:49:37;97561.65;;;10.11;34.81
74334;BME280;62753;40.394;-80.022;2023-04-24T10:52:03;97561.26;;;10.00;34.67
74334;BME280;62753;40.394;-80.022;2023-04-24T10:54:29;97559.61;;;10.18;35.22
74334;BME280;62753;40.394;-80.022;2023-04-24T10:56:56;97564.35;;;9.87;35.28
74334;BME280;62753;40.394;-80.022;2023-04-24T10:59:25;97568.02;;;10.41;34.90
74334;BME280;62753;40.394;-80.022;2023-04-24T11:01:52;97568.79;;;10.38;34.41
74334;BME280;62753;40.394;-80.022;2023-04-24T11:04:10;97567.74;;;10.66;34.57
74334;BME280;62753;40.394;-80.022;2023-04-24T11:06:36;97572.83;;;9.87;35.64
74334;BME280;62753;40.394;-80.022;2023-04-24T11:09:03;97569.74;;;10.36;35.19
74334;BME280;62753;40.394;-80.022;2023-04-24T11:11:29;97575.09;;;10.27;34.99
74334;BME280;62753;40.394;-80.022;2023-04-24T11:14:02;97577.76;;;9.94;36.25
74334;BME280;62753;40.394;-80.022;2023-04-24T11:16:23;97578.35;;;9.88;36.74
74334;BME280;62753;40.394;-80.022;2023-04-24T11:18:43;97579.91;;;10.18;36.32
74334;BME280;62753;40.394;-80.022;2023-04-24T11:21:11;97580.25;;;9.66;36.63
74334;BME280;62753;40.394;-80.022;2023-04-24T11:23:36;97580.79;;;9.76;36.66
74334;BME280;62753;40.394;-80.022;2023-04-24T11:26:10;97580.98;;;10.51;35.75
74334;BME280;62753;40.394;-80.022;2023-04-24T11:28:25;97577.75;;;10.32;35.27
74334;BME280;62753;40.394;-80.022;2023-04-24T11:30:50;97580.34;;;10.28;35.51
74334;BME280;62753;40.394;-80.022;2023-04-24T11:33:20;97584.89;;;10.80;34.79
74334;BME280;62753;40.394;-80.022;2023-04-24T11:35:41;97586.57;;;10.52;35.23
74334;BME280;62753;40.394;-80.022;2023-04-24T11:38:06;97587.82;;;10.76;35.38
74334;BME280;62753;40.394;-80.022;2023-04-24T11:40:31;97585.43;;;10.10;35.50
74334;BME280;62753;40.394;-80.022;2023-04-24T11:43:00;97586.16;;;10.55;35.11
74334;BME280;62753;40.394;-80.022;2023-04-24T11:45:24;97587.32;;;11.09;34.96
74334;BME280;62753;40.394;-80.022;2023-04-24T11:47:48;97588.25;;;11.28;33.77
74334;BME280;62753;40.394;-80.022;2023-04-24T11:50:16;97590.67;;;10.80;34.16
74334;BME280;62753;40.394;-80.022;2023-04-24T11:52:40;97594.35;;;9.81;36.15
74334;BME280;62753;40.394;-80.022;2023-04-24T11:55:07;97591.48;;;10.30;36.17
74334;BME280;62753;40.394;-80.022;2023-04-24T11:57:30;97595.70;;;10.68;35.29
74334;BME280;62753;40.394;-80.022;2023-04-24T11:59:56;97597.14;;;11.01;34.59
74334;BME280;62753;40.394;-80.022;2023-04-24T12:02:22;97595.83;;;11.21;34.56
74334;BME280;62753;40.394;-80.022;2023-04-24T12:04:47;97595.81;;;11.11;34.81
74334;BME280;62753;40.394;-80.022;2023-04-24T12:07:12;97596.64;;;10.77;35.63
74334;BME280;62753;40.394;-80.022;2023-04-24T12:09:41;97596.74;;;11.09;34.80
74334;BME280;62753;40.394;-80.022;2023-04-24T12:12:06;97594.41;;;10.65;34.81
74334;BME280;62753;40.394;-80.022;2023-04-24T12:14:29;97598.49;;;10.76;35.77
74334;BME280;62753;40.394;-80.022;2023-04-24T12:16:54;97603.02;;;10.36;36.52
74334;BME280;62753;40.394;-80.022;2023-04-24T12:19:21;97601.24;;;10.25;36.61
74334;BME280;62753;40.394;-80.022;2023-04-24T12:21:59;97598.32;;;10.52;35.98
74334;BME280;62753;40.394;-80.022;2023-04-24T12:24:10;97596.92;;;11.33;34.78
74334;BME280;62753;40.394;-80.022;2023-04-24T12:26:36;97598.04;;;11.12;34.45
74334;BME280;62753;40.394;-80.022;2023-04-24T12:29:02;97600.86;;;9.75;36.25
74334;BME280;62753;40.394;-80.022;2023-04-24T12:31:27;97605.34;;;10.49;35.76